Time;durP1;ratioP1;P1;durP2;ratioP2;P2;SDS_P1;SDS_P2;PMS_P1;PMS_P2;Temp;Humidity;BMP_temperature;BMP_pressure;BME280_temperature;BME280_humidity;BME280_pressure;Samples;Min_cycle;Max_cycle;Signal;HPM_P1;HPM_P2
2024/04/19 00:02:04;;;;;;;1.00;0.52;;;;;;;10.81;70.94;100393.56;5449203;26;20002;-66
2024/04/19 00:04:30;;;;;;;5.05;0.70;;;;;;;10.82;70.62;100393.19;5478808;26;20009;-64
2024/04/19 00:06:55;;;;;;;0.73;0.57;;;;;;;10.82;70.60;100384.31;5443391;26;19990;-65
2024/04/19 00:09:41;;;;;;;1.42;0.50;;;;;;;10.84;70.78;100377.44;5470207;26;20009;-67
2024/04/19 00:12:06;;;;;;;1.17;0.70;;;;;;;10.77;70.43;100371.97;5472575;26;20002;-67
2024/04/19 00:14:32;;;;;;;2.55;1.10;;;;;;;10.75;70.36;100371.53;5438021;26;20041;-64
2024/04/19 00:16:57;;;;;;;1.45;0.90;;;;;;;10.77;70.10;100357.72;5479346;26;19994;-65
2024/04/19 00:19:22;;;;;;;0.68;0.63;;;;;;;10.76;70.44;100356.19;5477766;26;20455;-65
2024/04/19 00:21:48;;;;;;;1.75;0.73;;;;;;;10.69;70.51;100348.75;5432043;26;19998;-65
2024/04/19 00:24:14;;;;;;;2.25;1.27;;;;;;;10.68;70.23;100349.88;5441595;26;20009;-64
2024/04/19 00:26:39;;;;;;;6.43;0.93;;;;;;;10.68;70.22;100349.13;5475030;26;20031;-65
2024/04/19 00:29:05;;;;;;;5.75;0.90;;;;;;;10.69;69.80;100340.69;5416479;26;19998;-64
2024/04/19 00:31:30;;;;;;;8.20;1.30;;;;;;;10.63;69.51;100336.75;5481462;26;20022;-64
2024/04/19 00:33:56;;;;;;;1.13;0.82;;;;;;;10.63;69.71;100334.03;5483582;26;19998;-64
2024/04/19 00:36:21;;;;;;;1.67;1.20;;;;;;;10.66;69.93;100325.25;5485053;26;20074;-67
2024/04/19 00:38:47;;;;;;;2.38;1.00;;;;;;;10.55;70.43;100321.63;5444378;26;20360;-64
2024/04/19 00:41:12;;;;;;;0.80;0.80;;;;;;;10.47;70.57;100311.88;5483600;26;20014;-65
2024/04/19 00:43:37;;;;;;;1.85;1.00;;;;;;;10.60;69.99;100313.25;5476844;26;20010;-64
2024/04/19 00:46:05;;;;;;;1.00;0.70;;;;;;;10.65;69.45;100296.75;5450089;26;20002;-64
2024/04/19 00:48:31;;;;;;;7.85;1.23;;;;;;;10.72;69.10;100299.53;5443663;26;20336;-66
2024/04/19 00:50:59;;;;;;;0.70;0.70;;;;;;;10.77;68.86;100296.56;5478606;26;20089;-65
2024/04/19 00:53:29;;;;;;;1.63;0.88;;;;;;;10.75;69.50;100292.66;5476395;26;20415;-65
2024/04/19 00:56:00;;;;;;;1.70;0.95;;;;;;;10.72;69.55;100285.31;5480269;26;20002;-65
2024/04/19 00:58:26;;;;;;;;;;;;;;;10.79;68.91;100290.78;5476722;26;20072;-65
2024/04/19 01:00:52;;;;;;;0.98;0.82;;;;;;;10.77;69.17;100277.69;5473550;26;19940;-64
2024/04/19 01:03:17;;;;;;;0.80;0.80;;;;;;;10.81;69.40;100283.91;5483195;26;19990;-66
2024/04/19 01:05:43;;;;;;;1.23;0.68;;;;;;;10.82;69.33;100276.59;5468576;26;20017;-67
2024/04/19 01:08:28;;;;;;;1.50;0.68;;;;;;;10.85;69.13;100262.41;5473051;26;20010;-65
2024/04/19 01:10:54;;;;;;;1.40;0.82;;;;;;;10.89;69.29;100255.16;5474802;26;20018;-67
2024/04/19 01:13:19;;;;;;;1.83;1.00;;;;;;;10.85;70.11;100255.09;5483334;26;19990;-65
2024/04/19 01:15:45;;;;;;;4.63;0.80;;;;;;;10.80;70.81;100246.56;5445939;26;20002;-65
2024/04/19 01:18:10;;;;;;;3.42;0.95;;;;;;;10.86;70.37;100243.19;5474432;26;20047;-65
2024/04/19 01:20:36;;;;;;;1.95;0.80;;;;;;;10.74;71.29;100239.94;5440221;26;20003;-65
2024/04/19 01:23:03;;;;;;;1.50;0.73;;;;;;;10.75;70.78;100231.50;5483997;26;19990;-66
2024/04/19 01:25:38;;;;;;;1.33;1.20;;;;;;;10.62;71.95;100227.50;5448508;26;19998;-65
2024/04/19 01:28:11;;;;;;;3.03;1.00;;;;;;;10.46;72.75;100220.72;5444669;26;19994;-65
2024/04/19 01:30:39;;;;;;;2.67;0.80;;;;;;;10.57;73.38;100203.56;5419393;26;20002;-64
2024/04/19 01:33:05;;;;;;;3.15;0.47;;;;;;;10.60;72.95;100213.63;5451985;26;20013;-63
2024/04/19 01:35:30;;;;;;;1.67;0.80;;;;;;;10.42;74.14;100201.84;5471545;26;20002;-64
2024/04/19 01:37:55;;;;;;;0.68;0.68;;;;;;;10.45;74.66;100198.41;5476955;26;20005;-64
2024/04/19 01:40:21;;;;;;;1.35;0.73;;;;;;;10.42;75.70;100193.75;5469568;26;20009;-66
2024/04/19 01:42:47;;;;;;;1.88;1.02;;;;;;;10.24;76.37;100190.03;5456393;26;20006;-66
2024/04/19 01:45:12;;;;;;;6.72;0.85;;;;;;;10.20;77.48;100197.28;5470643;26;20002;-64
2024/04/19 01:47:39;;;;;;;0.50;0.50;;;;;;;10.08;78.06;100184.03;5420670;26;19998;-65
2024/04/19 01:50:06;;;;;;;1.17;0.50;;;;;;;10.12;78.39;100182.19;5461721;26;19998;-66
2024/04/19 01:52:31;;;;;;;2.33;1.58;;;;;;;10.10;79.59;100168.34;5468830;26;20013;-65
2024/04/19 01:54:57;;;;;;;6.80;1.30;;;;;;;9.99;80.30;100170.03;5480658;26;20006;-65
2024/04/19 01:57:22;;;;;;;1.42;0.85;;;;;;;9.92;81.88;100156.50;5471552;26;20014;-64
2024/04/19 01:59:48;;;;;;;6.50;0.95;;;;;;;9.93;81.84;100148.06;5448259;26;20009;-64
2024/04/19 02:02:13;;;;;;;4.15;0.52;;;;;;;9.98;81.55;100149.69;5444587;26;20099;-64
2024/04/19 02:04:39;;;;;;;0.65;0.65;;;;;;;10.11;79.98;100142.97;5444727;26;19998;-64
2024/04/19 02:07:04;;;;;;;2.92;1.00;;;;;;;10.10;80.69;100137.97;5455751;26;20006;-64
2024/04/19 02:09:34;;;;;;;2.58;1.17;;;;;;;9.98;81.32;100128.16;5478271;26;20039;-65
2024/04/19 02:12:00;;;;;;;3.33;1.10;;;;;;;9.87;81.46;100116.50;5471222;26;20676;-65
2024/04/19 02:14:26;;;;;;;1.23;0.85;;;;;;;9.93;81.75;100117.69;5477407;26;20025;-65
2024/04/19 02:16:51;;;;;;;1.00;0.82;;;;;;;9.99;81.33;100110.88;5480994;26;20406;-64
2024/04/19 02:19:17;;;;;;;1.50;0.60;;;;;;;9.99;82.09;100094.72;5475551;26;19999;-67
2024/04/19 02:21:42;;;;;;;1.08;0.90;;;;;;;9.70;83.67;100095.47;5461971;26;20042;-66
2024/04/19 02:24:08;;;;;;;0.30;0.30;;;;;;;9.65;83.42;100087.72;5434271;26;19999;-65
2024/04/19 02:26:34;;;;;;;1.05;0.95;;;;;;;9.64;84.13;100086.94;5475568;26;20027;-63
2024/04/19 02:31:44;;;;;;;5.10;1.60;;;;;;;9.52;85.22;100075.63;5474264;26;20081;-65
2024/04/19 02:34:09;;;;;;;1.88;0.98;;;;;;;9.59;84.98;100065.75;5482721;26;20010;-64
2024/04/19 02:36:35;;;;;;;2.65;0.80;;;;;;;9.76;85.06;100056.38;5480458;26;20018;-65
2024/04/19 02:39:00;;;;;;;1.10;0.85;;;;;;;9.74;83.81;100053.28;5464226;26;20347;-65
2024/04/19 02:41:26;;;;;;;2.33;0.80;;;;;;;9.72;84.98;100042.91;5448245;26;20002;-64
2024/04/19 02:43:52;;;;;;;1.50;0.90;;;;;;;9.64;85.18;100032.44;5443935;26;20530;-65
2024/04/19 02:46:17;;;;;;;3.35;1.15;;;;;;;9.46;85.63;100028.72;5455837;26;20002;-64
2024/04/19 02:48:43;;;;;;;0.90;0.70;;;;;;;9.63;85.81;100026.28;5434510;26;20007;-66
2024/04/19 02:51:09;;;;;;;3.45;1.45;;;;;;;9.64;85.08;100024.38;5450179;26;20071;-66
2024/04/19 02:53:34;;;;;;;3.20;0.80;;;;;;;9.59;85.77;100006.63;5480445;26;20032;-64
2024/04/19 02:56:02;;;;;;;0.90;0.85;;;;;;;9.54;85.87;100008.88;5454181;26;20010;-66
2024/04/19 02:58:27;;;;;;;1.13;1.02;;;;;;;9.46;87.17;99991.88;5448203;26;20355;-65
2024/04/19 03:00:52;;;;;;;3.10;0.93;;;;;;;9.40;86.57;99990.63;5436497;26;19998;-64
2024/04/19 03:03:18;;;;;;;2.28;0.73;;;;;;;9.33;87.60;99981.69;5447451;26;19999;-66
2024/04/19 03:05:44;;;;;;;3.63;1.08;;;;;;;9.27;88.11;99975.09;5477512;26;19994;-66
2024/04/19 03:08:10;;;;;;;0.82;0.75;;;;;;;9.35;87.28;99976.75;5453401;26;20366;-67
2024/04/19 03:10:40;;;;;;;1.77;1.10;;;;;;;9.20;87.12;99959.63;5444192;26;20006;-66
2024/04/19 03:13:10;;;;;;;0.95;0.77;;;;;;;9.37;86.79;99950.28;5483286;26;20328;-66
2024/04/19 03:15:37;;;;;;;0.70;0.70;;;;;;;9.34;85.90;99945.63;5443262;26;20014;-66
2024/04/19 03:18:04;;;;;;;4.00;1.17;;;;;;;9.43;85.03;99951.50;5479257;26;20004;-65
2024/04/19 03:20:29;;;;;;;0.85;0.82;;;;;;;9.31;85.68;99933.69;5419621;26;19994;-67
2024/04/19 03:22:55;;;;;;;1.08;0.88;;;;;;;9.29;86.69;99935.19;5458716;26;20013;-64
2024/04/19 03:25:20;;;;;;;1.33;1.10;;;;;;;9.27;87.49;99926.72;5452367;26;20030;-64
2024/04/19 03:27:46;;;;;;;3.03;1.15;;;;;;;9.26;87.75;99919.78;5452757;26;20017;-64
2024/04/19 03:30:23;;;;;;;1.00;0.85;;;;;;;9.26;86.43;99911.72;5447681;26;20007;-65
2024/04/19 03:32:48;;;;;;;0.90;0.90;;;;;;;9.24;87.10;99911.31;5448463;26;20484;-65
2024/04/19 03:35:14;;;;;;;0.70;0.70;;;;;;;9.00;88.97;99902.56;5423904;26;20012;-64
2024/04/19 03:37:39;;;;;;;1.33;0.90;;;;;;;9.15;87.76;99903.53;5448284;26;19998;-64
2024/04/19 03:40:05;;;;;;;2.95;0.95;;;;;;;9.22;87.91;99897.47;5475458;26;20436;-66
2024/04/19 03:42:31;;;;;;;6.40;1.17;;;;;;;9.14;88.70;99899.28;5451528;26;20009;-65
2024/04/19 03:47:40;;;;;;;1.00;0.88;;;;;;;9.15;87.68;99886.66;5448818;26;20671;-65
2024/04/19 03:50:06;;;;;;;1.00;0.95;;;;;;;9.08;87.71;99871.19;5416506;26;20029;-68
2024/04/19 03:52:31;;;;;;;1.33;1.05;;;;;;;9.14;87.67;99861.69;5454136;26;19998;-66
2024/04/19 03:54:57;;;;;;;5.40;1.20;;;;;;;8.96;88.91;99864.16;5441646;26;20005;-66
2024/04/19 03:57:22;;;;;;;1.63;1.10;;;;;;;8.77;89.37;99861.56;5480492;26;20478;-65
2024/04/19 03:59:48;;;;;;;1.10;1.00;;;;;;;8.79;89.95;99845.88;5482427;26;19998;-66
2024/04/19 04:02:13;;;;;;;1.38;1.17;;;;;;;8.94;89.05;99841.50;5478250;26;20002;-67
2024/04/19 04:04:52;;;;;;;0.82;0.80;;;;;;;8.68;90.05;99836.91;5451415;26;19998;-64
2024/04/19 04:07:18;;;;;;;1.08;0.98;;;;;;;8.85;88.60;99832.91;5483152;26;20006;-65
2024/04/19 04:09:43;;;;;;;2.60;0.82;;;;;;;8.47;90.84;99814.34;5448304;26;20010;-67
2024/04/19 04:12:09;;;;;;;2.13;1.10;;;;;;;8.67;89.52;99815.81;5443384;26;20009;-67
2024/04/19 04:14:36;;;;;;;1.35;0.93;;;;;;;8.56;89.61;99804.91;5476098;26;21069;-65
2024/04/19 04:17:01;;;;;;;0.82;0.65;;;;;;;8.54;90.47;99803.72;5443746;26;20012;-69
2024/04/19 04:19:27;;;;;;;0.85;0.85;;;;;;;8.83;88.95;99789.56;5472006;26;20081;-65
2024/04/19 04:21:52;;;;;;;0.63;0.60;;;;;;;8.85;87.03;99780.00;5415220;26;20010;-65
2024/04/19 04:24:18;;;;;;;1.17;1.02;;;;;;;8.42;89.21;99779.81;5451261;26;20013;-66
2024/04/19 04:26:43;;;;;;;1.23;0.95;;;;;;;8.26;90.73;99766.53;5442855;26;19994;-65
2024/04/19 04:29:09;;;;;;;1.05;0.90;;;;;;;8.30;90.47;99766.59;5423334;26;20014;-66
2024/04/19 04:31:34;;;;;;;1.15;0.77;;;;;;;8.65;88.74;99753.69;5483803;26;20003;-68
2024/04/19 04:34:00;;;;;;;4.63;1.17;;;;;;;8.61;88.70;99748.28;5445451;26;20054;-64
2024/04/19 04:36:25;;;;;;;1.40;0.98;;;;;;;8.77;88.91;99751.53;5440853;26;20409;-65
2024/04/19 04:38:51;;;;;;;1.17;1.08;;;;;;;8.55;90.12;99738.97;5475691;26;20030;-66
2024/04/19 04:41:16;;;;;;;3.05;1.08;;;;;;;8.75;88.79;99736.94;5474625;26;20012;-66
2024/04/19 04:43:42;;;;;;;1.00;0.90;;;;;;;8.73;89.16;99737.28;5478706;26;20075;-68
2024/04/19 04:46:08;;;;;;;1.50;0.98;;;;;;;8.83;88.93;99725.13;5434464;26;20345;-69
2024/04/19 04:48:33;;;;;;;2.78;1.20;;;;;;;8.85;88.00;99720.94;5435396;26;21934;-70
2024/04/19 04:50:59;;;;;;;1.38;1.27;;;;;;;8.68;89.23;99713.47;5471171;26;19998;-68
2024/04/19 04:53:26;;;;;;;1.15;1.05;;;;;;;8.77;89.30;99724.69;5442990;26;20418;-69
2024/04/19 04:55:54;;;;;;;1.80;1.27;;;;;;;8.65;90.14;99700.75;5420286;26;20084;-67
2024/04/19 04:58:20;;;;;;;1.42;1.00;;;;;;;8.59;90.61;99701.47;5458132;26;19998;-65
2024/04/19 05:00:47;;;;;;;2.40;1.10;;;;;;;8.60;90.61;99700.31;5412248;26;20932;-67
2024/04/19 05:03:13;;;;;;;1.83;1.23;;;;;;;8.56;90.86;99694.13;5475412;26;20339;-65
2024/04/19 05:05:39;;;;;;;2.45;1.23;;;;;;;8.61;91.78;99691.91;5477022;26;20013;-65
2024/04/19 05:08:05;;;;;;;2.50;1.17;;;;;;;8.58;92.34;99681.91;5449375;26;20010;-65
2024/04/19 05:10:30;;;;;;;1.35;1.25;;;;;;;8.74;90.29;99684.38;5440987;26;20005;-67
2024/04/19 05:12:57;;;;;;;1.83;1.15;;;;;;;8.72;90.29;99670.56;5421165;26;20006;-66
2024/04/19 05:15:23;;;;;;;1.15;1.08;;;;;;;8.57;90.26;99668.84;5442127;26;19995;-66
2024/04/19 05:17:49;;;;;;;1.08;0.98;;;;;;;8.20;92.12;99669.50;5441292;26;20004;-66
2024/04/19 05:20:15;;;;;;;0.60;0.60;;;;;;;7.89;92.76;99647.63;5470551;26;20002;-65
2024/04/19 05:22:40;;;;;;;0.80;0.80;;;;;;;7.91;93.29;99650.72;5442096;26;20043;-67
2024/04/19 05:25:09;;;;;;;0.75;0.73;;;;;;;7.91;93.66;99640.75;5476540;26;20026;-66
2024/04/19 05:27:34;;;;;;;0.85;0.52;;;;;;;7.98;94.37;99635.50;5466788;26;20010;-67
2024/04/19 05:30:00;;;;;;;2.67;1.13;;;;;;;8.11;93.83;99636.03;5470206;26;19998;-66
2024/04/19 05:32:25;;;;;;;0.70;0.50;;;;;;;8.10;94.52;99626.47;5460749;26;20033;-66
2024/04/19 05:34:51;;;;;;;0.70;0.70;;;;;;;8.08;93.81;99628.72;5464786;26;19995;-66
2024/04/19 05:37:16;;;;;;;1.05;0.88;;;;;;;8.32;93.52;99625.63;5473284;26;20348;-67
2024/04/19 05:39:42;;;;;;;0.77;0.70;;;;;;;8.36;93.69;99623.78;5477920;26;19998;-68
2024/04/19 05:42:08;;;;;;;0.75;0.55;;;;;;;8.60;91.16;99619.81;5439534;26;20014;-67
2024/04/19 05:44:34;;;;;;;0.65;0.60;;;;;;;8.55;90.49;99612.09;5471899;26;20413;-66
2024/04/19 05:47:00;;;;;;;0.30;0.30;;;;;;;8.40;91.50;99599.66;5439760;26;20002;-67
2024/04/19 05:49:28;;;;;;;0.55;0.55;;;;;;;8.34;91.75;99595.75;5441458;26;20003;-67
2024/04/19 05:51:54;;;;;;;0.88;0.77;;;;;;;8.42;91.67;99592.78;5447089;26;19990;-68
2024/04/19 05:54:19;;;;;;;1.02;0.80;;;;;;;8.49;91.48;99590.19;5467644;26;20529;-67
2024/04/19 05:56:45;;;;;;;1.13;0.90;;;;;;;8.33;93.07;99588.84;5437448;26;19990;-67
2024/04/19 05:59:10;;;;;;;0.75;0.70;;;;;;;8.47;92.98;99580.97;5446381;26;21794;-68
2024/04/19 06:01:36;;;;;;;1.05;0.57;;;;;;;8.54;92.71;99572.97;5431603;26;20015;-69
2024/04/19 06:04:01;;;;;;;0.85;0.82;;;;;;;8.43;94.21;99578.25;5468421;26;20002;-66
2024/04/19 06:06:27;;;;;;;1.30;1.08;;;;;;;8.66;93.36;99584.25;5436988;26;20006;-66
2024/04/19 06:08:52;;;;;;;0.93;0.68;;;;;;;8.62;92.93;99564.66;5470164;26;19999;-65
2024/04/19 06:11:18;;;;;;;1.15;0.73;;;;;;;8.74;92.17;99572.44;5420094;26;20011;-65
2024/04/19 06:13:47;;;;;;;1.70;0.90;;;;;;;8.59;93.35;99564.63;5416993;26;20077;-65
2024/04/19 06:16:13;;;;;;;0.77;0.77;;;;;;;8.49;94.65;99565.28;5471666;26;20497;-66
2024/04/19 06:18:38;;;;;;;0.30;0.30;;;;;;;8.51;94.57;99546.91;5443161;26;20006;-66
2024/04/19 06:21:04;;;;;;;1.75;0.80;;;;;;;8.51;94.78;99550.34;5473718;26;20087;-65
2024/04/19 06:23:29;;;;;;;1.10;0.93;;;;;;;8.53;93.92;99545.41;5443426;26;20006;-65
2024/04/19 06:25:56;;;;;;;3.30;0.63;;;;;;;8.40;95.29;99536.03;5473712;26;20021;-66
2024/04/19 06:28:22;;;;;;;0.85;0.85;;;;;;;8.60;94.99;99533.94;5470924;26;20006;-65
2024/04/19 06:30:47;;;;;;;1.02;0.70;;;;;;;8.70;94.74;99528.69;5439598;26;19994;-66
2024/04/19 06:33:13;;;;;;;1.83;0.88;;;;;;;8.73;93.74;99525.25;5441429;26;20373;-66
2024/04/19 06:35:38;;;;;;;0.60;0.60;;;;;;;8.77;92.93;99517.22;5435819;26;20524;-66
2024/04/19 06:38:04;;;;;;;1.15;0.90;;;;;;;8.82;93.78;99509.63;5450361;26;20008;-66
2024/04/19 06:40:29;;;;;;;1.05;0.88;;;;;;;8.72;94.93;99509.53;5423852;26;20035;-66
2024/04/19 06:42:55;;;;;;;0.93;0.80;;;;;;;8.87;94.64;99501.22;5475219;26;20010;-64
2024/04/19 06:45:20;;;;;;;1.23;0.90;;;;;;;8.86;95.18;99491.66;5419736;26;20002;-64
2024/04/19 06:47:46;;;;;;;1.20;0.70;;;;;;;8.97;94.94;99491.72;5463827;26;20050;-67
2024/04/19 06:50:11;;;;;;;0.73;0.60;;;;;;;9.09;93.84;99481.47;5441878;26;20463;-67
2024/04/19 06:52:37;;;;;;;1.00;0.88;;;;;;;9.12;93.55;99487.25;5442025;26;20003;-66
2024/04/19 06:55:03;;;;;;;1.05;0.70;;;;;;;9.06;93.99;99476.81;5475932;26;20332;-67
2024/04/19 06:57:28;;;;;;;1.23;0.82;;;;;;;8.99;94.27;99470.63;5428795;26;20022;-63
2024/04/19 06:59:53;;;;;;;0.88;0.82;;;;;;;9.19;94.22;99474.63;5463520;26;20049;-68
2024/04/19 07:02:19;;;;;;;0.73;0.73;;;;;;;9.16;94.54;99467.28;5411458;26;20589;-65
2024/04/19 07:04:44;;;;;;;1.40;0.93;;;;;;;9.32;93.91;99477.75;5433017;26;20010;-65
2024/04/19 07:07:10;;;;;;;1.63;0.85;;;;;;;9.33;93.52;99466.63;5463162;26;20013;-67
2024/04/19 07:09:35;;;;;;;1.73;1.20;;;;;;;9.41;93.35;99470.91;5471710;26;20009;-68
2024/04/19 07:12:01;;;;;;;0.95;0.95;;;;;;;9.39;92.68;99462.44;5480182;26;20025;-66
2024/04/19 07:14:26;;;;;;;1.25;0.90;;;;;;;9.37;93.72;99461.31;5475111;26;19998;-65
2024/04/19 07:16:52;;;;;;;1.27;0.90;;;;;;;9.40;93.83;99457.84;5474870;26;20584;-65
2024/04/19 07:19:17;;;;;;;1.42;1.33;;;;;;;9.43;93.93;99447.13;5470292;26;20020;-66
2024/04/19 07:21:43;;;;;;;2.47;0.93;;;;;;;9.31;95.61;99460.13;5469463;26;20022;-65
2024/04/19 07:24:09;;;;;;;1.10;1.00;;;;;;;9.44;95.41;99454.03;5483718;26;20006;-65
2024/04/19 07:26:37;;;;;;;1.67;1.10;;;;;;;9.61;94.70;99444.50;5480892;26;20076;-65
2024/04/19 07:29:06;;;;;;;2.03;1.05;;;;;;;9.61;94.54;99444.50;5443029;26;19998;-66
2024/04/19 07:31:31;;;;;;;1.25;1.08;;;;;;;9.56;94.58;99440.25;5470819;26;20006;-66
2024/04/19 07:33:57;;;;;;;4.03;1.13;;;;;;;9.59;94.01;99434.16;5465649;26;20733;-66
2024/04/19 07:36:23;;;;;;;1.70;1.42;;;;;;;9.69;94.96;99433.44;5417641;26;20102;-65
2024/04/19 07:38:48;;;;;;;4.13;1.42;;;;;;;9.62;95.72;99429.94;5469554;26;20348;-65
2024/04/19 07:41:14;;;;;;;1.17;1.08;;;;;;;9.42;97.20;99434.84;5416410;26;20006;-65
2024/04/19 07:43:39;;;;;;;1.70;1.20;;;;;;;9.63;95.75;99439.53;5445643;26;19998;-68
2024/04/19 07:46:05;;;;;;;1.83;1.52;;;;;;;9.60;96.52;99434.91;5444419;26;20071;-64
2024/04/19 07:48:30;;;;;;;1.83;1.48;;;;;;;9.65;96.40;99431.84;5429698;26;20353;-65
2024/04/19 07:50:56;;;;;;;2.03;1.55;;;;;;;9.75;97.35;99433.81;5472773;26;20031;-66
2024/04/19 07:53:22;;;;;;;3.10;1.52;;;;;;;9.83;96.96;99416.56;5470585;26;20030;-68
2024/04/19 07:55:48;;;;;;;2.28;1.25;;;;;;;9.63;96.85;99428.78;5471006;26;19991;-65
2024/04/19 07:58:14;;;;;;;1.50;1.40;;;;;;;9.76;98.86;99425.38;5437859;26;20013;-66
2024/04/19 08:00:40;;;;;;;2.17;1.33;;;;;;;9.87;98.35;99425.41;5436019;26;20415;-66
2024/04/19 08:03:06;;;;;;;1.70;1.10;;;;;;;10.03;97.92;99426.59;5469648;26;20006;-68
2024/04/19 08:05:31;;;;;;;1.67;1.38;;;;;;;10.17;97.24;99414.34;5463716;26;19998;-66
2024/04/19 08:07:58;;;;;;;1.83;1.33;;;;;;;10.14;97.44;99415.91;5418885;26;20009;-66
2024/04/19 08:10:26;;;;;;;1.95;1.40;;;;;;;10.14;97.70;99415.91;5452691;26;20002;-65
2024/04/19 08:12:52;;;;;;;1.88;1.23;;;;;;;10.27;97.23;99419.00;5473044;26;20010;-65
2024/04/19 08:15:17;;;;;;;3.03;1.77;;;;;;;10.33;97.23;99412.09;5442336;26;20095;-69
2024/04/19 08:17:43;;;;;;;1.77;1.52;;;;;;;10.56;97.01;99404.41;5448843;26;20070;-67
2024/04/19 08:20:09;;;;;;;3.97;1.70;;;;;;;10.51;98.38;99399.41;5479851;26;20010;-66
2024/04/19 08:22:34;;;;;;;1.38;1.27;;;;;;;10.86;97.06;99402.81;5464724;26;19999;-67
2024/04/19 08:25:01;;;;;;;2.13;1.45;;;;;;;10.90;98.06;99402.81;5470171;26;20025;-65
2024/04/19 08:27:26;;;;;;;2.35;1.60;;;;;;;10.99;98.42;99399.72;5475400;26;20347;-64
2024/04/19 08:29:53;;;;;;;2.00;1.40;;;;;;;11.27;97.82;99395.03;5446788;26;20028;-65
2024/04/19 08:32:19;;;;;;;5.53;1.50;;;;;;;11.31;98.28;99403.09;5443758;26;20009;-66
2024/04/19 08:34:52;;;;;;;2.00;1.80;;;;;;;11.46;98.20;99386.50;5414157;26;20356;-65
2024/04/19 08:37:18;;;;;;;1.55;1.20;;;;;;;11.73;96.92;99395.66;5418103;26;20734;-67
2024/04/19 08:39:44;;;;;;;2.10;1.35;;;;;;;11.91;96.21;99386.69;5446081;26;20083;-67
2024/04/19 08:42:13;;;;;;;2.45;1.48;;;;;;;12.04;95.90;99385.84;5436307;26;20064;-66
2024/04/19 08:44:44;;;;;;;1.20;1.08;;;;;;;12.15;95.46;99381.16;5477065;26;20471;-67
2024/04/19 08:47:14;;;;;;;2.00;1.02;;;;;;;12.49;94.12;99379.34;5439720;26;20469;-66
2024/04/19 08:49:43;;;;;;;1.85;1.27;;;;;;;12.60;92.66;99377.31;5449827;26;20009;-66
2024/04/19 08:52:10;;;;;;;7.15;1.48;;;;;;;12.42;92.74;99376.72;5461264;26;20010;-67
2024/04/19 08:54:36;;;;;;;1.23;1.10;;;;;;;12.36;93.69;99372.13;5442770;26;19995;-70
2024/04/19 08:57:04;;;;;;;1.63;1.15;;;;;;;12.50;94.07;99377.41;5421991;26;20013;-67
2024/04/19 08:59:33;;;;;;;2.45;1.15;;;;;;;12.83;94.57;99362.44;5469743;26;20002;-65
2024/04/19 09:01:59;;;;;;;1.02;0.88;;;;;;;13.21;92.90;99364.00;5474138;26;19994;-66
2024/04/19 09:04:25;;;;;;;1.27;0.85;;;;;;;13.16;91.15;99361.75;5470417;26;20462;-66
2024/04/19 09:06:50;;;;;;;0.98;0.60;;;;;;;13.28;91.65;99359.25;5439229;26;19999;-66
2024/04/19 09:09:17;;;;;;;2.33;0.82;;;;;;;13.53;90.61;99353.53;5420088;26;20002;-65
2024/04/19 09:11:48;;;;;;;1.60;0.90;;;;;;;13.29;88.71;99351.94;5443830;26;20006;-66
2024/04/19 09:14:14;;;;;;;1.10;0.80;;;;;;;12.89;88.83;99355.44;5417069;26;20066;-66
2024/04/19 09:16:40;;;;;;;1.73;0.82;;;;;;;12.62;89.37;99347.19;5468742;26;20475;-66
2024/04/19 09:19:08;;;;;;;0.60;0.60;;;;;;;12.66;89.51;99364.91;5449958;26;20026;-65
2024/04/19 09:21:34;;;;;;;2.80;0.60;;;;;;;12.13;89.97;99367.28;5444523;26;19998;-65
2024/04/19 09:23:59;;;;;;;2.72;0.75;;;;;;;11.66;91.93;99365.25;5481402;26;20009;-66
2024/04/19 09:26:25;;;;;;;2.00;0.43;;;;;;;12.04;91.78;99372.34;5469053;26;20347;-67
2024/04/19 09:28:54;;;;;;;2.55;0.50;;;;;;;12.19;90.13;99373.81;5470813;26;19999;-67
2024/04/19 09:31:20;;;;;;;0.98;0.28;;;;;;;12.20;90.37;99377.25;5475268;26;20010;-66
2024/04/19 09:33:46;;;;;;;0.82;0.25;;;;;;;12.42;90.65;99365.91;5430445;26;19998;-66
2024/04/19 09:36:18;;;;;;;0.55;0.30;;;;;;;12.68;90.37;99367.97;5445139;26;20352;-67
2024/04/19 09:38:45;;;;;;;0.40;0.40;;;;;;;12.86;91.03;99361.63;5467758;26;20002;-66
2024/04/19 09:41:17;;;;;;;0.35;0.32;;;;;;;13.04;91.06;99362.25;5454813;26;20074;-66
2024/04/19 09:43:49;;;;;;;0.35;0.35;;;;;;;13.07;91.29;99356.81;5447747;26;20355;-66
2024/04/19 09:46:37;;;;;;;0.38;0.30;;;;;;;13.40;89.26;99363.38;5460571;26;20721;-65
2024/04/19 09:49:07;;;;;;;2.33;0.50;;;;;;;13.42;89.19;99356.41;5471098;26;20070;-66
2024/04/19 09:51:47;;;;;;;1.80;0.70;;;;;;;13.58;88.35;99355.81;5444608;26;20010;-67
2024/04/19 09:54:14;;;;;;;5.93;0.88;;;;;;;13.56;87.87;99353.53;5479383;26;20003;-66
2024/04/19 09:57:00;;;;;;;0.57;0.47;;;;;;;13.13;87.40;99362.53;5453714;26;20016;-67
2024/04/19 09:59:27;;;;;;;1.05;0.57;;;;;;;12.91;88.82;99363.91;5460029;26;19998;-66
2024/04/19 10:01:54;;;;;;;1.23;0.55;;;;;;;12.42;89.24;99376.72;5456023;26;20002;-66
2024/04/19 10:04:20;;;;;;;0.57;0.55;;;;;;;12.49;89.78;99370.47;5458155;26;20071;-66
2024/04/19 10:06:47;;;;;;;0.93;0.52;;;;;;;12.07;89.31;99355.38;5483583;26;20014;-65
2024/04/19 10:09:17;;;;;;;2.17;0.70;;;;;;;11.74;89.95;99351.34;5475257;26;19999;-65
2024/04/19 10:11:45;;;;;;;1.45;0.57;;;;;;;11.61;91.35;99341.38;5442556;26;20035;-67
2024/04/19 10:14:11;;;;;;;0.68;0.60;;;;;;;11.52;91.50;99338.31;5475900;26;20014;-69
2024/04/19 10:16:39;;;;;;;0.85;0.60;;;;;;;11.35;92.87;99337.25;5483447;26;20043;-67
2024/04/19 10:19:05;;;;;;;0.40;0.40;;;;;;;11.48;92.71;99332.19;5476171;26;20001;-68
2024/04/19 10:21:39;;;;;;;0.75;0.65;;;;;;;11.73;92.90;99330.91;5445932;26;20008;-66
2024/04/19 10:24:14;;;;;;;1.50;0.70;;;;;;;11.95;92.55;99323.47;5480938;26;19994;-66
2024/04/19 10:26:40;;;;;;;2.63;1.92;;;;;;;11.77;93.30;99309.31;5484284;26;19999;-68
2024/04/19 10:29:05;;;;;;;1.27;1.15;;;;;;;11.87;93.38;99324.66;5491226;26;19994;-68
2024/04/19 10:31:34;;;;;;;3.72;0.60;;;;;;;12.01;94.55;99319.19;5453885;26;20705;-66
2024/04/19 10:33:59;;;;;;;1.48;0.70;;;;;;;12.58;94.04;99314.81;5440290;26;19994;-63
2024/04/19 10:36:31;;;;;;;2.33;1.00;;;;;;;12.95;92.73;99310.59;5443552;26;20042;-67
2024/04/19 10:38:58;;;;;;;5.90;0.98;;;;;;;12.90;91.21;99308.31;5475893;26;20364;-65
2024/04/19 10:41:24;;;;;;;1.88;0.93;;;;;;;12.91;90.90;99299.81;5418999;26;20068;-67
2024/04/19 10:43:51;;;;;;;5.72;0.80;;;;;;;13.34;91.34;99300.09;5444757;26;20005;-67
2024/04/19 10:46:17;;;;;;;2.17;0.90;;;;;;;13.70;91.13;99300.38;5474084;26;19998;-66
2024/04/19 10:48:42;;;;;;;4.53;1.17;;;;;;;13.88;89.04;99296.22;5475819;26;20017;-66
2024/04/19 10:51:13;;;;;;;7.82;1.05;;;;;;;13.81;87.51;99295.56;5448247;26;20026;-67
2024/04/19 10:53:39;;;;;;;1.70;0.70;;;;;;;13.88;87.33;99292.78;5473642;26;20559;-65
2024/04/19 10:56:05;;;;;;;6.63;0.82;;;;;;;13.45;87.59;99290.66;5454977;26;20013;-65
2024/04/19 10:58:31;;;;;;;1.48;0.73;;;;;;;13.32;89.16;99280.81;5474896;26;19998;-66
2024/04/19 11:00:57;;;;;;;4.00;0.90;;;;;;;13.30;87.92;99289.31;5475223;26;20009;-65
2024/04/19 11:03:24;;;;;;;2.13;0.88;;;;;;;12.87;88.76;99292.94;5451285;26;19998;-65
2024/04/19 11:05:49;;;;;;;0.47;0.47;;;;;;;12.23;88.49;99285.44;5422284;26;19995;-65
2024/04/19 11:08:15;;;;;;;0.30;0.30;;;;;;;11.56;90.38;99296.72;5438641;26;20066;-66
2024/04/19 11:10:41;;;;;;;1.55;0.63;;;;;;;11.74;90.62;99283.94;5482767;26;20479;-66
2024/04/19 11:13:08;;;;;;;2.20;0.63;;;;;;;11.98;90.92;99286.84;5477131;26;20006;-67
2024/04/19 11:15:34;;;;;;;2.00;0.80;;;;;;;12.20;91.85;99283.56;5481153;26;20470;-65
2024/04/19 11:18:00;;;;;;;3.03;0.95;;;;;;;12.43;92.94;99283.72;5487911;26;20019;-67
2024/04/19 11:20:26;;;;;;;2.17;0.88;;;;;;;12.80;92.48;99272.16;5488808;26;20002;-65
2024/04/19 11:22:52;;;;;;;1.75;0.50;;;;;;;12.97;91.61;99270.44;5448178;26;20013;-67
2024/04/19 11:25:17;;;;;;;0.77;0.52;;;;;;;12.89;91.48;99272.41;5447884;26;20010;-66
2024/04/19 11:27:43;;;;;;;2.70;0.45;;;;;;;12.92;91.06;99266.22;5489651;26;20020;-65
2024/04/19 11:30:09;;;;;;;6.68;1.10;;;;;;;13.21;90.93;99274.78;5455266;26;20010;-64
2024/04/19 11:32:35;;;;;;;2.67;0.68;;;;;;;13.48;89.86;99272.88;5472034;26;20013;-66
2024/04/19 11:35:01;;;;;;;1.58;0.70;;;;;;;13.64;89.46;99264.13;5443106;26;19994;-67
2024/04/19 11:37:27;;;;;;;0.82;0.75;;;;;;;13.78;89.39;99263.94;5452523;26;20009;-66
2024/04/19 11:39:52;;;;;;;8.85;1.00;;;;;;;13.90;88.28;99266.81;5476428;26;20364;-66